Time;durP1;ratioP1;P1;durP2;ratioP2;P2;SDS_P1;SDS_P2;PMS_P1;PMS_P2;Temp;Humidity;BMP_temperature;BMP_pressure;BME280_temperature;BME280_humidity;BME280_pressure;Samples;Min_cycle;Max_cycle;Signal;HPM_P1;HPM_P2
2023/02/08 00:01:06;;;;;;;;;;;;;;;-1.26;81.94;103500.34;111264;1205;124576;-60
2023/02/08 00:03:31;;;;;;;;;;;;;;;-1.28;82.01;103496.90;111354;1208;97695;-60
2023/02/08 00:05:56;;;;;;;;;;;;;;;-1.29;82.10;103502.45;111350;1205;124984;-61
2023/02/08 00:08:22;;;;;;;;;;;;;;;-1.31;81.87;103500.98;111382;1208;97665;-61
2023/02/08 00:10:48;;;;;;;;;;;;;;;-1.33;81.75;103505.27;111446;1206;97555;-60
2023/02/08 00:13:13;;;;;;;;;;;;;;;-1.35;81.80;103508.84;111237;1204;126411;-61
2023/02/08 00:15:41;;;;;;;;;;;;;;;-1.35;81.89;103509.55;111370;1208;97803;-61
2023/02/08 00:18:06;;;;;;;;;;;;;;;-1.34;81.89;103514.34;111268;1208;125834;-58
2023/02/08 00:20:32;;;;;;;;;;;;;;;-1.35;81.66;103514.10;111426;1206;97694;-58
2023/02/08 00:22:57;;;;;;;;;;;;;;;-1.35;81.79;103509.36;111269;1206;124907;-58
2023/02/08 00:25:22;;;;;;;;;;;;;;;-1.35;81.73;103507.09;111360;1208;97729;-58
2023/02/08 00:27:47;;;;;;;;;;;;;;;-1.37;81.78;103506.25;111417;1206;97590;-59
2023/02/08 00:30:13;;;;;;;;;;;;;;;-1.42;81.74;103510.04;111231;1209;125677;-59
2023/02/08 00:32:38;;;;;;;;;;;;;;;-1.42;81.60;103508.63;111412;1206;97590;-59
2023/02/08 00:35:03;;;;;;;;;;;;;;;-1.42;81.64;103511.66;111288;1206;125003;-59
2023/02/08 00:37:28;;;;;;;;;;;;;;;-1.41;81.62;103511.89;111425;1206;97673;-59
2023/02/08 00:39:54;;;;;;;;;;;;;;;-1.40;81.72;103509.81;111369;1205;98088;-59
2023/02/08 00:42:19;;;;;;;;;;;;;;;-1.41;81.77;103508.88;111236;1206;125323;-59
2023/02/08 00:44:44;;;;;;;;;;;;;;;-1.46;81.43;103504.06;111457;1208;97697;-59
2023/02/08 00:47:09;;;;;;;;;;;;;;;-1.52;81.41;103500.07;111309;1204;125512;-59
2023/02/08 00:49:35;;;;;;;;;;;;;;;-1.55;81.55;103502.17;111383;1208;97701;-59
2023/02/08 00:52:00;;;;;;;;;;;;;;;-1.56;81.38;103498.98;111449;1206;97581;-58
2023/02/08 00:54:25;;;;;;;;;;;;;;;-1.58;81.34;103502.88;111360;1206;125193;-59
2023/02/08 00:56:51;;;;;;;;;;;;;;;-1.61;81.38;103502.90;111347;1206;108284;-60
2023/02/08 00:59:16;;;;;;;;;;;;;;;-1.63;81.36;103503.16;111249;1207;125348;-60
2023/02/08 01:01:41;;;;;;;;;;;;;;;-1.65;81.33;103502.02;111407;1206;96547;-59
2023/02/08 01:04:07;;;;;;;;;;;;;;;-1.65;81.35;103504.84;111344;1206;97680;-60
2023/02/08 01:06:32;;;;;;;;;;;;;;;-1.62;81.40;103508.33;111272;1206;124916;-60
2023/02/08 01:08:57;;;;;;;;;;;;;;;-1.59;81.45;103512.48;111365;1206;97588;-59
2023/02/08 01:11:26;;;;;;;;;;;;;;;-1.59;81.27;103514.94;111327;1204;125291;-59
2023/02/08 01:13:53;;;;;;;;;;;;;;;-1.61;81.35;103514.14;111341;1208;107455;-60
2023/02/08 01:16:22;;;;;;;;;;;;;;;-1.66;81.26;103513.37;111346;1206;99172;-59
2023/02/08 01:18:49;;;;;;;;;;;;;;;-1.67;81.57;103515.92;111221;1208;124623;-58
2023/02/08 01:21:15;;;;;;;;;;;;;;;-1.71;81.25;103521.18;111347;1208;97659;-58
2023/02/08 01:23:41;;;;;;;;;;;;;;;-1.73;81.30;103521.95;111279;1205;125444;-59
2023/02/08 01:26:08;;;;;;;;;;;;;;;-1.73;81.04;103525.95;111390;1206;97648;-58
2023/02/08 01:28:33;;;;;;;;;;;;;;;-1.75;81.12;103527.79;111409;1208;97846;-60
2023/02/08 01:30:59;;;;;;;;;;;;;;;-1.74;81.34;103527.30;111254;1206;125392;-60
2023/02/08 01:33:24;;;;;;;;;;;;;;;-1.75;81.20;103524.65;111491;1204;99055;-63
2023/02/08 01:35:51;;;;;;;;;;;;;;;-1.73;81.12;103524.23;111285;1206;125283;-60
2023/02/08 01:38:16;;;;;;;;;;;;;;;-1.70;81.25;103526.86;111532;1208;97581;-60
2023/02/08 01:40:41;;;;;;;;;;;;;;;-1.67;81.18;103530.15;111484;1206;97706;-58
2023/02/08 01:43:23;;;;;;;;;;;;;;;-1.66;81.19;103527.58;111261;1206;124731;-63
2023/02/08 01:45:49;;;;;;;;;;;;;;;-1.67;81.19;103531.53;111360;1209;97664;-58
2023/02/08 01:48:28;;;;;;;;;;;;;;;-1.68;81.23;103531.17;111216;1206;125413;-58
2023/02/08 01:50:59;;;;;;;;;;;;;;;-1.67;81.10;103531.19;111366;1206;110582;-58
2023/02/08 01:53:26;;;;;;;;;;;;;;;-1.67;81.02;103527.73;111231;1206;125772;-60
2023/02/08 01:55:54;;;;;;;;;;;;;;;-1.68;81.10;103530.98;111318;1206;97748;-61
2023/02/08 01:58:20;;;;;;;;;;;;;;;-1.71;81.15;103528.36;111674;1208;99996;-60
2023/02/08 02:00:46;;;;;;;;;;;;;;;-1.74;80.83;103531.33;111299;1205;124823;-60
2023/02/08 02:03:11;;;;;;;;;;;;;;;-1.79;80.91;103527.07;111377;1208;97754;-59
2023/02/08 02:05:39;;;;;;;;;;;;;;;-1.81;80.77;103532.20;111251;1206;126639;-59
2023/02/08 02:08:05;;;;;;;;;;;;;;;-1.82;81.09;103533.88;111369;1206;97584;-60
2023/02/08 02:10:32;;;;;;;;;;;;;;;-1.83;80.80;103535.40;111449;1204;97566;-60
2023/02/08 02:13:11;;;;;;;;;;;;;;;-1.83;81.04;103536.31;111249;1206;125000;-58
2023/02/08 02:15:36;;;;;;;;;;;;;;;-1.82;80.93;103536.36;111402;1206;100250;-60
2023/02/08 02:18:04;;;;;;;;;;;;;;;-1.81;81.05;103533.23;111234;1204;125341;-60
2023/02/08 02:20:49;;;;;;;;;;;;;;;-1.81;80.92;103533.61;111323;1206;97587;-59
2023/02/08 02:23:33;;;;;;;;;;;;;;;-1.82;80.96;103532.30;111250;1208;124986;-60
2023/02/08 02:26:18;;;;;;;;;;;;;;;-1.82;81.01;103527.78;111408;1206;111515;-60
2023/02/08 02:28:53;;;;;;;;;;;;;;;-1.81;80.82;103528.33;111311;1208;99330;-60
2023/02/08 02:31:42;;;;;;;;;;;;;;;-1.81;80.76;103530.26;111417;1204;108154;-60
2023/02/08 02:34:43;;;;;;;;;;;;;;;-1.81;80.93;103528.51;111339;1207;97996;-60
2023/02/08 02:37:08;;;;;;;;;;;;;;;-1.82;80.85;103525.80;111171;1208;125497;-59
2023/02/08 02:39:33;;;;;;;;;;;;;;;-1.87;80.67;103521.90;111248;1208;97793;-59
2023/02/08 02:45:26;;;;;;;;;;;;;;;-1.90;80.79;103524.15;111318;1205;96894;-59
2023/02/08 02:48:05;;;;;;;;;;;;;;;-1.94;80.68;103528.48;111116;1213;124800;-61
2023/02/08 02:50:30;;;;;;;;;;;;;;;-1.97;80.88;103530.96;111310;1208;111948;-60
2023/02/08 02:52:58;;;;;;;;;;;;;;;-1.99;80.82;103531.42;111285;1206;126043;-61
2023/02/08 02:55:24;;;;;;;;;;;;;;;-1.98;80.90;103528.48;111354;1206;97643;-59
2023/02/08 02:57:52;;;;;;;;;;;;;;;-1.99;80.65;103528.27;111473;1206;97574;-59
2023/02/08 03:00:20;;;;;;;;;;;;;;;-2.00;80.59;103526.62;111259;1206;125228;-59
2023/02/08 03:02:45;;;;;;;;;;;;;;;-2.02;80.79;103529.13;111371;1208;98226;-59
2023/02/08 03:05:11;;;;;;;;;;;;;;;-2.03;80.70;103531.69;111298;1208;97663;-59
2023/02/08 03:07:39;;;;;;;;;;;;;;;-2.03;80.81;103533.46;111408;1205;97654;-59
2023/02/08 03:10:05;;;;;;;;;;;;;;;-2.03;80.98;103537.51;111314;1205;111905;-59
2023/02/08 03:12:49;;;;;;;;;;;;;;;-2.02;80.71;103538.92;111185;1208;125542;-59
2023/02/08 03:15:22;;;;;;;;;;;;;;;-2.04;80.88;103539.90;111319;1208;108316;-59
2023/02/08 03:18:06;;;;;;;;;;;;;;;-2.02;80.92;103542.45;111251;1206;124856;-59
2023/02/08 03:20:37;;;;;;;;;;;;;;;-2.00;81.05;103548.69;111347;1206;97834;-59
2023/02/08 03:23:08;;;;;;;;;;;;;;;-2.00;80.74;103552.90;111182;1208;124907;-60
2023/02/08 03:25:43;;;;;;;;;;;;;;;-1.99;80.76;103553.85;111317;1206;100549;-59
2023/02/08 03:28:20;;;;;;;;;;;;;;;-1.99;80.85;103558.05;111375;1208;107444;-59
2023/02/08 03:31:11;;;;;;;;;;;;;;;-2.01;80.62;103557.05;111226;1206;126362;-59
2023/02/08 03:33:41;;;;;;;;;;;;;;;-2.04;80.74;103557.59;111373;1208;97587;-60
2023/02/08 03:36:16;;;;;;;;;;;;;;;-2.04;80.76;103555.98;111289;1206;124822;-59
2023/02/08 03:38:43;;;;;;;;;;;;;;;-2.04;80.65;103553.73;111346;1206;98869;-59
2023/02/08 03:41:14;;;;;;;;;;;;;;;-2.05;80.71;103550.87;111282;1206;124774;-60
2023/02/08 03:43:41;;;;;;;;;;;;;;;-2.06;80.74;103551.14;111399;1206;97732;-60
2023/02/08 03:46:06;;;;;;;;;;;;;;;-2.08;80.53;103554.20;111399;1207;97680;-60
2023/02/08 03:48:33;;;;;;;;;;;;;;;-2.12;80.74;103559.27;111231;1208;125571;-60
2023/02/08 03:50:59;;;;;;;;;;;;;;;-2.13;80.57;103557.25;111436;1208;98173;-62
2023/02/08 03:53:26;;;;;;;;;;;;;;;-2.12;80.91;103553.30;111256;1208;127100;-61
2023/02/08 03:55:55;;;;;;;;;;;;;;;-2.10;80.65;103555.83;111355;1204;96860;-59
2023/02/08 03:58:22;;;;;;;;;;;;;;;-2.11;80.68;103556.13;111404;1206;111724;-59
2023/02/08 04:00:53;;;;;;;;;;;;;;;-2.10;80.71;103557.92;111249;1206;125569;-59
2023/02/08 04:03:21;;;;;;;;;;;;;;;-2.10;80.62;103557.05;111314;1206;107506;-59
2023/02/08 04:05:47;;;;;;;;;;;;;;;-2.10;80.64;103553.73;111224;1206;124771;-59
2023/02/08 04:08:12;;;;;;;;;;;;;;;-2.09;80.58;103559.06;111344;1205;96075;-59
2023/02/08 04:10:38;;;;;;;;;;;;;;;-2.10;80.58;103558.66;111397;1208;97613;-59
2023/02/08 04:13:03;;;;;;;;;;;;;;;-2.08;80.59;103557.72;111260;1206;125780;-59
2023/02/08 04:15:28;;;;;;;;;;;;;;;-2.08;80.64;103556.81;111409;1206;97696;-59
2023/02/08 04:17:54;;;;;;;;;;;;;;;-2.08;80.61;103551.92;111226;1206;124597;-59
2023/02/08 04:20:19;;;;;;;;;;;;;;;-2.10;80.82;103551.13;111315;1205;97681;-58
2023/02/08 04:22:44;;;;;;;;;;;;;;;-2.10;80.60;103549.55;111388;1206;97562;-58
2023/02/08 04:25:09;;;;;;;;;;;;;;;-2.09;80.54;103548.73;111249;1208;124351;-59
2023/02/08 04:27:35;;;;;;;;;;;;;;;-2.09;80.53;103553.29;111366;1205;96332;-59
2023/02/08 04:30:00;;;;;;;;;;;;;;;-2.11;80.68;103556.67;111231;1208;124656;-61
2023/02/08 04:32:25;;;;;;;;;;;;;;;-2.11;80.49;103561.90;111426;1206;95064;-58
2023/02/08 04:34:50;;;;;;;;;;;;;;;-2.10;80.70;103565.50;111401;1206;111139;-59
2023/02/08 04:37:16;;;;;;;;;;;;;;;-2.08;80.42;103562.27;111271;1208;125245;-59
2023/02/08 04:39:41;;;;;;;;;;;;;;;-2.07;80.55;103560.73;111479;1208;97693;-59
2023/02/08 04:42:07;;;;;;;;;;;;;;;-2.07;80.67;103559.35;111287;1209;124768;-59
2023/02/08 04:44:32;;;;;;;;;;;;;;;-2.07;80.55;103558.64;111368;1206;97624;-59
2023/02/08 04:46:58;;;;;;;;;;;;;;;-2.06;80.80;103565.34;111259;1208;125426;-58
2023/02/08 04:49:23;;;;;;;;;;;;;;;-2.06;80.65;103564.16;111386;1208;97593;-59
2023/02/08 04:51:48;;;;;;;;;;;;;;;-2.08;80.82;103561.58;111459;1206;97684;-59
2023/02/08 04:54:13;;;;;;;;;;;;;;;-2.08;80.67;103553.52;111275;1208;124840;-59
2023/02/08 04:56:38;;;;;;;;;;;;;;;-2.06;80.64;103554.52;111405;1208;97662;-59
2023/02/08 04:59:04;;;;;;;;;;;;;;;-2.06;80.78;103556.62;111307;1206;124845;-59
2023/02/08 05:01:29;;;;;;;;;;;;;;;-2.05;80.65;103561.87;111326;1209;97683;-59
2023/02/08 05:03:54;;;;;;;;;;;;;;;-2.08;80.60;103564.40;111468;1208;97702;-58
2023/02/08 05:06:19;;;;;;;;;;;;;;;-2.08;80.56;103566.98;111249;1206;124648;-59
2023/02/08 05:08:44;;;;;;;;;;;;;;;-2.10;80.41;103567.04;111466;1206;97664;-61
2023/02/08 05:11:10;;;;;;;;;;;;;;;-2.13;80.59;103567.73;111311;1206;124754;-59
2023/02/08 05:13:35;;;;;;;;;;;;;;;-2.16;80.54;103568.67;111425;1206;97680;-59
2023/02/08 05:16:00;;;;;;;;;;;;;;;-2.14;80.48;103570.14;111380;1208;97632;-59
2023/02/08 05:18:25;;;;;;;;;;;;;;;-2.12;80.49;103570.08;111216;1208;124701;-59
2023/02/08 05:20:55;;;;;;;;;;;;;;;-2.10;80.70;103572.46;111419;1208;97584;-59
2023/02/08 05:23:20;;;;;;;;;;;;;;;-2.10;80.49;103574.61;111189;1206;125602;-60
2023/02/08 05:25:45;;;;;;;;;;;;;;;-2.10;80.35;103577.75;111353;1207;97590;-60
2023/02/08 05:28:11;;;;;;;;;;;;;;;-2.11;80.44;103582.95;111412;1206;97725;-59
2023/02/08 05:30:37;;;;;;;;;;;;;;;-2.13;80.26;103581.61;111233;1208;126257;-59
2023/02/08 05:33:02;;;;;;;;;;;;;;;-2.15;80.45;103587.46;111416;1208;97715;-59
2023/02/08 05:35:27;;;;;;;;;;;;;;;-2.15;80.25;103586.58;111208;1206;125664;-60
2023/02/08 05:37:52;;;;;;;;;;;;;;;-2.13;80.46;103584.73;111333;1206;97677;-60
2023/02/08 05:40:18;;;;;;;;;;;;;;;-2.13;80.42;103586.17;111438;1206;97728;-59
2023/02/08 05:42:43;;;;;;;;;;;;;;;-2.13;80.34;103587.91;111270;1208;125568;-59
2023/02/08 05:45:08;;;;;;;;;;;;;;;-2.13;80.26;103590.02;111440;1208;97585;-59
2023/02/08 05:47:35;;;;;;;;;;;;;;;-2.14;80.44;103594.50;111335;1207;124710;-58
2023/02/08 05:50:00;;;;;;;;;;;;;;;-2.15;80.32;103592.02;111345;1209;97674;-59
2023/02/08 05:52:25;;;;;;;;;;;;;;;-2.14;80.41;103592.41;111388;1206;97667;-59
2023/02/08 05:54:50;;;;;;;;;;;;;;;-2.13;80.26;103595.62;111247;1206;125459;-59
2023/02/08 05:57:15;;;;;;;;;;;;;;;-2.13;80.22;103594.23;111295;1208;97680;-62
2023/02/08 05:59:41;;;;;;;;;;;;;;;-2.12;80.22;103590.75;111266;1218;126029;-59
2023/02/08 06:02:06;;;;;;;;;;;;;;;-2.11;80.30;103583.12;111316;1206;98023;-59
2023/02/08 06:04:31;;;;;;;;;;;;;;;-2.09;80.34;103583.23;111382;1206;97559;-59
2023/02/08 06:06:56;;;;;;;;;;;;;;;-2.06;80.34;103585.66;111215;1208;126205;-58
2023/02/08 06:09:21;;;;;;;;;;;;;;;-2.06;80.50;103582.73;111367;1206;97673;-59
2023/02/08 06:11:47;;;;;;;;;;;;;;;-2.04;80.41;103590.89;111235;1206;124946;-59
2023/02/08 06:14:12;;;;;;;;;;;;;;;-2.03;80.45;103594.26;111397;1206;97643;-59
2023/02/08 06:16:37;;;;;;;;;;;;;;;-2.04;80.44;103602.95;111366;1208;97706;-60
2023/02/08 06:19:02;;;;;;;;;;;;;;;-2.06;80.16;103600.72;111327;1208;125180;-61
2023/02/08 06:21:27;;;;;;;;;;;;;;;-2.09;80.15;103599.00;111269;1206;106044;-59
2023/02/08 06:23:52;;;;;;;;;;;;;;;-2.09;80.29;103594.11;111230;1206;125533;-59
2023/02/08 06:26:18;;;;;;;;;;;;;;;-2.08;80.19;103601.68;111365;1206;97619;-59
2023/02/08 06:28:43;;;;;;;;;;;;;;;-2.06;80.25;103608.42;111362;1209;97559;-59
2023/02/08 06:31:08;;;;;;;;;;;;;;;-2.05;80.39;103612.17;111323;1208;124698;-59
2023/02/08 06:33:33;;;;;;;;;;;;;;;-2.04;80.52;103615.59;111361;1205;97687;-60
2023/02/08 06:35:59;;;;;;;;;;;;;;;-2.03;80.37;103617.04;111307;1206;125379;-60
2023/02/08 06:38:24;;;;;;;;;;;;;;;-2.02;80.33;103616.21;111391;1206;98070;-60
2023/02/08 06:40:49;;;;;;;;;;;;;;;-2.02;80.24;103617.42;111363;1206;98043;-59
2023/02/08 06:43:15;;;;;;;;;;;;;;;-2.00;80.33;103620.69;111282;1206;124424;-60
2023/02/08 06:45:41;;;;;;;;;;;;;;;-1.98;80.29;103625.17;111408;1208;97648;-59
2023/02/08 06:48:07;;;;;;;;;;;;;;;-1.97;80.07;103626.83;111277;1204;125365;-59
2023/02/08 06:50:32;;;;;;;;;;;;;;;-1.94;80.07;103625.25;111433;1206;97565;-58
2023/02/08 06:52:57;;;;;;;;;;;;;;;-1.91;80.16;103627.52;111269;1206;125407;-59
2023/02/08 06:55:22;;;;;;;;;;;;;;;-1.88;80.30;103624.52;111398;1208;97710;-61
2023/02/08 06:57:47;;;;;;;;;;;;;;;-1.86;80.48;103629.91;111312;1207;99799;-59
2023/02/08 07:00:13;;;;;;;;;;;;;;;-1.83;80.40;103633.77;111248;1206;125151;-59
2023/02/08 07:02:38;;;;;;;;;;;;;;;-1.82;80.21;103632.55;111526;1205;96486;-59
2023/02/08 07:05:05;;;;;;;;;;;;;;;-1.80;80.12;103636.21;111243;1208;126115;-61
2023/02/08 07:07:30;;;;;;;;;;;;;;;-1.77;80.36;103637.92;111368;1206;97931;-60
2023/02/08 07:09:56;;;;;;;;;;;;;;;-1.75;80.30;103635.27;111442;1208;97649;-60
2023/02/08 07:12:21;;;;;;;;;;;;;;;-1.71;80.23;103639.66;111230;1209;124693;-60
2023/02/08 07:14:46;;;;;;;;;;;;;;;-1.68;80.38;103635.47;111372;1209;99085;-59
2023/02/08 07:17:12;;;;;;;;;;;;;;;-1.68;80.09;103634.08;111332;1206;96302;-59
2023/02/08 07:19:37;;;;;;;;;;;;;;;-1.67;80.26;103630.95;111338;1208;97672;-60
2023/02/08 07:22:08;;;;;;;;;;;;;;;-1.66;80.27;103632.77;111363;1208;98809;-60
2023/02/08 07:24:38;;;;;;;;;;;;;;;-1.61;80.16;103632.30;111202;1208;124793;-61
2023/02/08 07:27:04;;;;;;;;;;;;;;;-1.58;80.22;103634.05;111359;1206;98014;-60
2023/02/08 07:29:30;;;;;;;;;;;;;;;-1.55;80.25;103633.65;111220;1206;125366;-59
2023/02/08 07:31:56;;;;;;;;;;;;;;;-1.54;80.04;103636.52;111378;1208;97757;-60
2023/02/08 07:34:21;;;;;;;;;;;;;;;-1.53;80.18;103632.05;111345;1208;97567;-60
2023/02/08 07:36:47;;;;;;;;;;;;;;;-1.49;80.04;103633.47;111281;1206;124580;-59
2023/02/08 07:39:12;;;;;;;;;;;;;;;-1.48;79.99;103631.08;111345;1209;97629;-60
2023/02/08 07:41:38;;;;;;;;;;;;;;;-1.45;80.20;103625.98;111286;1209;125102;-60
2023/02/08 07:44:03;;;;;;;;;;;;;;;-1.41;79.89;103619.70;111377;1206;98029;-62
2023/02/08 07:46:28;;;;;;;;;;;;;;;-1.38;79.98;103617.44;111410;1206;97658;-58
2023/02/08 07:48:53;;;;;;;;;;;;;;;-1.34;79.92;103618.72;111242;1208;125552;-59
2023/02/08 07:51:18;;;;;;;;;;;;;;;-1.30;79.99;103618.90;111340;1206;97575;-59
2023/02/08 07:53:44;;;;;;;;;;;;;;;-1.28;79.89;103617.25;111248;1206;125202;-61
2023/02/08 07:56:09;;;;;;;;;;;;;;;-1.27;79.83;103619.77;111342;1206;97681;-61
2023/02/08 07:58:34;;;;;;;;;;;;;;;-1.23;79.80;103616.29;111394;1209;97577;-61
2023/02/08 08:01:00;;;;;;;;;;;;;;;-1.18;80.02;103612.16;111243;1206;125473;-59
2023/02/08 08:03:25;;;;;;;;;;;;;;;-1.14;80.04;103611.33;111431;1206;97564;-60
2023/02/08 08:05:50;;;;;;;;;;;;;;;-1.08;79.96;103609.55;111265;1207;124652;-60
2023/02/08 08:08:15;;;;;;;;;;;;;;;-1.05;79.86;103597.27;111408;1206;98064;-60
2023/02/08 08:10:40;;;;;;;;;;;;;;;-1.08;79.91;103597.45;111312;1208;97765;-60
2023/02/08 08:13:05;;;;;;;;;;;;;;;-1.14;79.58;103596.55;111280;1206;125480;-60
2023/02/08 08:15:31;;;;;;;;;;;;;;;-1.19;79.74;103594.77;111360;1206;96291;-60
2023/02/08 08:17:56;;;;;;;;;;;;;;;-1.21;79.44;103591.13;111275;1206;124472;-60
2023/02/08 08:20:22;;;;;;;;;;;;;;;-1.27;79.45;103594.66;111410;1207;97611;-60
2023/02/08 08:22:47;;;;;;;;;;;;;;;-1.33;79.36;103594.19;111377;1209;97642;-61
2023/02/08 08:25:13;;;;;;;;;;;;;;;-1.38;79.52;103600.96;111239;1206;124569;-58
2023/02/08 08:27:38;;;;;;;;;;;;;;;-1.38;79.36;103602.00;111442;1206;96881;-61
2023/02/08 08:30:07;;;;;;;;;;;;;;;-1.37;79.41;103603.31;111276;1206;125209;-59
2023/02/08 08:32:32;;;;;;;;;;;;;;;-1.36;79.25;103604.94;111348;1208;99981;-59
2023/02/08 08:34:57;;;;;;;;;;;;;;;-1.36;79.37;103605.11;111183;1206;124910;-59
2023/02/08 08:37:23;;;;;;;;;;;;;;;-1.33;79.34;103606.30;111347;1206;97693;-61
2023/02/08 08:39:48;;;;;;;;;;;;;;;-1.30;79.36;103606.98;111346;1209;97630;-61
2023/02/08 08:42:13;;;;;;;;;;;;;;;-1.26;79.36;103608.57;111253;1209;125647;-60
2023/02/08 08:44:38;;;;;;;;;;;;;;;-1.25;79.32;103610.23;111336;1206;97635;-62
2023/02/08 08:47:04;;;;;;;;;;;;;;;-1.21;79.40;103615.49;111306;1206;124975;-61
2023/02/08 08:49:30;;;;;;;;;;;;;;;-1.18;79.22;103617.95;111320;1206;100550;-61
2023/02/08 08:51:58;;;;;;;;;;;;;;;-1.15;79.21;103620.72;111371;1207;97597;-61
2023/02/08 08:54:23;;;;;;;;;;;;;;;-1.14;79.27;103622.40;111225;1209;124547;-61
2023/02/08 08:56:49;;;;;;;;;;;;;;;-1.12;79.16;103622.14;111458;1206;96110;-61
2023/02/08 08:59:14;;;;;;;;;;;;;;;-1.11;79.20;103621.48;111223;1209;97746;-61
2023/02/08 09:01:41;;;;;;;;;;;;;;;-1.10;78.92;103619.46;111297;1208;97581;-59
2023/02/08 09:04:06;;;;;;;;;;;;;;;-1.07;78.97;103623.10;111420;1208;97601;-61
2023/02/08 09:06:31;;;;;;;;;;;;;;;-1.03;79.25;103624.36;111348;1208;111354;-59
2023/02/08 09:08:56;;;;;;;;;;;;;;;-1.00;79.20;103623.30;111376;1206;96179;-59
2023/02/08 09:11:22;;;;;;;;;;;;;;;-0.94;79.08;103622.88;111252;1208;125145;-60
2023/02/08 09:13:51;;;;;;;;;;;;;;;-0.89;78.96;103623.13;111322;1206;96186;-60
2023/02/08 09:16:17;;;;;;;;;;;;;;;-0.84;78.90;103620.42;111337;1209;111633;-61
2023/02/08 09:18:43;;;;;;;;;;;;;;;-0.80;79.05;103623.61;111257;1206;125115;-60
2023/02/08 09:21:10;;;;;;;;;;;;;;;-0.78;79.02;103624.62;111390;1206;97559;-60
2023/02/08 09:23:35;;;;;;;;;;;;;;;-0.75;78.94;103625.80;111293;1206;125860;-60
2023/02/08 09:26:01;;;;;;;;;;;;;;;-0.71;79.06;103628.13;111348;1206;97561;-60
2023/02/08 09:28:27;;;;;;;;;;;;;;;-0.64;79.06;103625.30;111395;1208;97656;-60
2023/02/08 09:30:52;;;;;;;;;;;;;;;-0.59;79.07;103625.55;111295;1206;125729;-60
2023/02/08 09:33:17;;;;;;;;;;;;;;;-0.57;78.19;103624.79;111311;1206;97649;-59
2023/02/08 09:35:42;;;;;;;;;;;;;;;-0.54;78.83;103624.92;111347;1206;124360;-59
2023/02/08 09:38:07;;;;;;;;;;;;;;;-0.50;78.82;103623.55;111360;1218;97667;-60
2023/02/08 09:40:55;;;;;;;;;;;;;;;-0.46;78.72;103622.52;111372;1206;97686;-60
2023/02/08 09:43:43;;;;;;;;;;;;;;;-0.41;78.74;103618.73;111383;1208;111167;-61
2023/02/08 09:46:17;;;;;;;;;;;;;;;-0.35;78.92;103616.05;111328;1206;100198;-60
2023/02/08 09:48:44;;;;;;;;;;;;;;;-0.32;78.56;103613.38;111157;1208;126141;-60
2023/02/08 09:51:24;;;;;;;;;;;;;;;-0.29;78.47;103613.33;111247;1207;98861;-59
2023/02/08 09:53:52;;;;;;;;;;;;;;;-0.26;78.51;103613.66;111195;1206;125261;-60
2023/02/08 09:56:20;;;;;;;;;;;;;;;-0.23;78.43;103609.58;111716;1208;111724;-62
2023/02/08 09:58:48;;;;;;;;;;;;;;;-0.20;78.41;103613.61;111354;1209;99861;-61
2023/02/08 10:01:24;;;;;;;;;;;;;;;-0.13;78.66;103613.41;111168;1206;124666;-62
2023/02/08 10:03:58;;;;;;;;;;;;;;;-0.05;78.50;103611.85;111306;1208;97642;-59
2023/02/08 10:06:24;;;;;;;;;;;;;;;0.02;78.36;103613.38;111157;1206;125226;-59
2023/02/08 10:08:51;;;;;;;;;;;;;;;0.08;78.42;103615.43;111319;1208;97695;-59
2023/02/08 10:11:16;;;;;;;;;;;;;;;0.14;78.25;103611.99;111159;1205;125000;-60
2023/02/08 10:13:56;;;;;;;;;;;;;;;0.19;78.16;103609.26;111311;1206;97789;-60
2023/02/08 10:16:54;;;;;;;;;;;;;;;0.24;78.17;103607.59;111291;1206;97731;-60
2023/02/08 10:19:28;;;;;;;;;;;;;;;0.31;78.06;103604.05;111080;1205;123680;-61
2023/02/08 10:22:18;;;;;;;;;;;;;;;0.35;78.10;103599.10;111263;1208;99189;-61
2023/02/08 10:24:55;;;;;;;;;;;;;;;0.37;78.04;103599.00;111199;1208;124251;-61
2023/02/08 10:27:20;;;;;;;;;;;;;;;0.38;78.05;103593.81;111296;1209;98884;-60
2023/02/08 10:30:03;;;;;;;;;;;;;;;0.44;78.02;103594.41;111247;1204;124714;-60
2023/02/08 10:32:47;;;;;;;;;;;;;;;0.48;77.75;103590.05;111261;1208;111398;-61
2023/02/08 10:35:14;;;;;;;;;;;;;;;0.53;77.63;103596.23;111230;1206;124926;-62
2023/02/08 10:37:41;;;;;;;;;;;;;;;0.58;77.85;103593.83;111285;1208;98010;-60
2023/02/08 10:40:16;;;;;;;;;;;;;;;0.69;77.90;103586.55;111318;1206;97671;-59
2023/02/08 10:42:45;;;;;;;;;;;;;;;0.76;77.87;103581.05;111251;1204;124358;-60
2023/02/08 10:45:17;;;;;;;;;;;;;;;0.78;77.59;103578.51;111317;1208;111769;-62
2023/02/08 10:47:48;;;;;;;;;;;;;;;0.80;77.49;103582.86;111256;1208;123877;-60
2023/02/08 10:50:32;;;;;;;;;;;;;;;0.88;77.59;103578.98;111340;1206;108047;-60
2023/02/08 10:52:57;;;;;;;;;;;;;;;0.96;77.55;103577.94;111214;1206;124980;-61
2023/02/08 10:55:23;;;;;;;;;;;;;;;1.02;77.49;103577.61;111320;1208;97667;-62
2023/02/08 10:57:49;;;;;;;;;;;;;;;1.05;77.19;103569.45;111434;1206;97559;-60
2023/02/08 11:00:32;;;;;;;;;;;;;;;1.11;77.18;103563.39;111186;1206;125039;-60
2023/02/08 11:03:00;;;;;;;;;;;;;;;1.16;76.88;103564.30;111337;1206;96310;-61
2023/02/08 11:05:35;;;;;;;;;;;;;;;1.24;76.92;103561.82;111336;1208;124319;-61
2023/02/08 11:08:08;;;;;;;;;;;;;;;1.32;77.11;103557.94;111362;1208;111246;-60
2023/02/08 11:10:35;;;;;;;;;;;;;;;1.39;77.27;103555.73;111318;1205;99990;-60
2023/02/08 11:13:00;;;;;;;;;;;;;;;1.45;77.05;103557.42;111233;1208;124234;-60
2023/02/08 11:15:32;;;;;;;;;;;;;;;1.50;76.87;103560.09;111384;1206;97572;-60
2023/02/08 11:17:58;;;;;;;;;;;;;;;1.51;76.85;103555.52;111426;1206;125886;-59
2023/02/08 11:20:26;;;;;;;;;;;;;;;1.51;76.75;103554.66;111348;1206;95025;-61
2023/02/08 11:22:51;;;;;;;;;;;;;;;1.53;76.72;103550.17;111376;1208;97693;-59
2023/02/08 11:25:31;;;;;;;;;;;;;;;1.57;76.57;103549.26;111243;1206;126203;-62
2023/02/08 11:27:56;;;;;;;;;;;;;;;1.56;76.35;103546.77;111360;1206;97701;-59
2023/02/08 11:30:23;;;;;;;;;;;;;;;1.61;76.60;103545.56;111241;1206;125602;-59
2023/02/08 11:33:07;;;;;;;;;;;;;;;1.62;76.29;103547.54;111431;1206;97593;-60
2023/02/08 11:35:33;;;;;;;;;;;;;;;1.61;76.44;103546.27;111247;1208;125605;-59
2023/02/08 11:37:58;;;;;;;;;;;;;;;1.59;76.25;103547.60;111379;1205;95029;-62
2023/02/08 11:40:35;;;;;;;;;;;;;;;1.63;76.11;103544.05;111430;1206;97607;-60
2023/02/08 11:43:00;;;;;;;;;;;;;;;1.66;76.07;103545.05;111207;1208;125951;-59
2023/02/08 11:45:31;;;;;;;;;;;;;;;1.65;76.02;103547.09;111352;1205;97569;-59
2023/02/08 11:47:56;;;;;;;;;;;;;;;1.66;75.97;103548.74;111241;1209;124975;-60
2023/02/08 11:50:36;;;;;;;;;;;;;;;1.69;76.00;103546.91;111309;1206;97578;-60
2023/02/08 11:53:03;;;;;;;;;;;;;;;1.72;75.71;103546.31;111257;1206;124949;-60
2023/02/08 11:55:30;;;;;;;;;;;;;;;1.75;75.67;103547.33;111298;1206;97590;-59
2023/02/08 11:58:10;;;;;;;;;;;;;;;1.80;75.47;103543.66;111307;1208;98045;-60
2023/02/08 12:00:36;;;;;;;;;;;;;;;1.87;75.59;103543.21;111271;1206;124958;-60
2023/02/08 12:03:22;;;;;;;;;;;;;;;1.96;75.51;103533.17;111341;1206;98013;-61
2023/02/08 12:05:58;;;;;;;;;;;;;;;2.05;75.56;103536.70;111267;1206;124825;-59
2023/02/08 12:08:36;;;;;;;;;;;;;;;2.10;75.48;103534.41;111323;1208;107327;-60
2023/02/08 12:11:14;;;;;;;;;;;;;;;2.13;75.33;103532.56;111271;1206;125324;-60
2023/02/08 12:13:46;;;;;;;;;;;;;;;2.16;75.43;103524.92;111497;1208;97584;-60
2023/02/08 12:16:33;;;;;;;;;;;;;;;2.17;74.88;103523.39;111357;1209;111559;-59
2023/02/08 12:19:00;;;;;;;;;;;;;;;2.14;74.86;103519.74;111273;1206;124621;-59
2023/02/08 12:21:34;;;;;;;;;;;;;;;2.19;74.91;103518.15;111378;1208;97895;-59
2023/02/08 12:24:15;;;;;;;;;;;;;;;2.29;74.66;103521.16;111207;1208;126181;-59
2023/02/08 12:26:54;;;;;;;;;;;;;;;2.28;74.38;103520.62;111382;1208;97702;-59
2023/02/08 12:29:40;;;;;;;;;;;;;;;2.28;74.46;103511.64;111234;1206;123992;-61
2023/02/08 12:32:15;;;;;;;;;;;;;;;2.41;74.46;103511.73;111400;1209;99934;-61